createdAt,value
2018-07-21T00:02:06.908Z,4.97
2018-07-21T00:04:35.904Z,4.08
2018-07-21T00:07:04.340Z,3.15
2018-07-21T00:09:32.786Z,4.15
2018-07-21T00:12:01.190Z,2.95
2018-07-21T00:14:29.739Z,6.58
2018-07-21T00:16:58.164Z,4.80
2018-07-21T00:19:26.772Z,2.42
2018-07-21T00:21:55.224Z,4.00
2018-07-21T00:24:23.674Z,3.92
2018-07-21T00:26:52.113Z,3.02
2018-07-21T00:29:20.780Z,2.60
2018-07-21T00:31:49.237Z,4.03
2018-07-21T00:34:18.352Z,3.15
2018-07-21T00:36:46.871Z,6.15
2018-07-21T00:39:16.499Z,3.30
2018-07-21T00:41:45.119Z,7.95
2018-07-21T00:44:13.492Z,4.70
2018-07-21T00:46:41.908Z,3.50
2018-07-21T00:49:10.400Z,3.95
2018-07-21T00:51:38.824Z,4.30
2018-07-21T00:54:07.286Z,3.17
2018-07-21T00:56:35.801Z,3.33
2018-07-21T00:59:04.269Z,5.85
2018-07-21T01:01:32.712Z,4.33
2018-07-21T01:04:01.177Z,3.27
2018-07-21T01:06:29.584Z,5.70
2018-07-21T01:08:58.012Z,5.22
2018-07-21T01:11:27.108Z,4.17
2018-07-21T01:13:55.532Z,3.83
2018-07-21T01:16:23.920Z,6.22
2018-07-21T01:18:52.356Z,3.27
2018-07-21T01:21:20.810Z,5.42
2018-07-21T01:23:49.236Z,5.70
2018-07-21T01:26:17.645Z,2.83
2018-07-21T01:28:46.123Z,3.27
2018-07-21T01:31:14.613Z,4.35
2018-07-21T01:33:43.084Z,2.98
2018-07-21T01:36:11.512Z,5.08
2018-07-21T01:38:39.938Z,3.45
2018-07-21T01:41:08.359Z,3.10
2018-07-21T01:43:36.761Z,5.22
2018-07-21T01:46:05.517Z,4.53
2018-07-21T01:48:34.691Z,3.02
2018-07-21T01:51:03.156Z,4.42
2018-07-21T01:53:31.660Z,2.75
2018-07-21T01:56:00.194Z,4.33
2018-07-21T01:58:28.603Z,4.22
2018-07-21T02:00:57.014Z,4.75
2018-07-21T02:03:25.462Z,4.17
2018-07-21T02:05:53.868Z,3.83
2018-07-21T02:08:22.304Z,3.92
2018-07-21T02:10:50.833Z,3.12
2018-07-21T02:13:19.262Z,3.22
2018-07-21T02:15:48.064Z,3.92
2018-07-21T02:18:16.443Z,5.08
2018-07-21T02:20:45.624Z,4.62
2018-07-21T02:23:14.200Z,4.03
2018-07-21T02:25:42.631Z,6.05
2018-07-21T02:28:11.177Z,3.83
2018-07-21T02:30:39.651Z,2.77
2018-07-21T02:33:08.137Z,3.90
2018-07-21T02:35:36.564Z,3.40
2018-07-21T02:38:05.120Z,3.02
2018-07-21T02:40:33.519Z,4.90
2018-07-21T02:43:01.924Z,3.98
2018-07-21T02:45:30.417Z,3.20
2018-07-21T02:47:58.861Z,3.77
2018-07-21T02:50:27.268Z,2.83
2018-07-21T02:52:55.680Z,2.50
2018-07-21T02:55:24.106Z,3.33
2018-07-21T02:57:52.620Z,3.42
2018-07-21T03:00:21.074Z,3.62
2018-07-21T03:02:50.271Z,4.25
2018-07-21T03:05:18.697Z,3.22
2018-07-21T03:07:47.232Z,6.08
2018-07-21T03:10:16.306Z,3.80
2018-07-21T03:12:44.692Z,4.47
2018-07-21T03:15:13.161Z,3.87
2018-07-21T03:17:41.561Z,3.45
2018-07-21T03:20:09.961Z,4.08
2018-07-21T03:22:38.361Z,3.75
2018-07-21T03:25:06.816Z,4.00
2018-07-21T03:27:35.233Z,4.53
2018-07-21T03:30:03.748Z,2.70
2018-07-21T03:32:32.429Z,2.90
2018-07-21T03:35:00.990Z,2.67
2018-07-21T03:37:29.440Z,3.12
2018-07-21T03:39:57.965Z,5.10
2018-07-21T03:42:26.399Z,4.28
2018-07-21T03:44:54.842Z,6.22
2018-07-21T03:47:23.533Z,4.78
2018-07-21T03:49:52.269Z,2.92
2018-07-21T03:52:20.797Z,4.62
2018-07-21T03:54:49.156Z,3.85
2018-07-21T03:57:17.599Z,3.25
2018-07-21T03:59:46.252Z,4.33
2018-07-21T04:02:14.705Z,4.60
2018-07-21T04:04:43.157Z,4.50
2018-07-21T04:07:11.568Z,4.05
2018-07-21T04:09:40.584Z,3.92
2018-07-21T04:12:09.264Z,3.02
2018-07-21T04:14:38.349Z,3.17
2018-07-21T04:17:11.049Z,2.80
2018-07-21T04:19:39.476Z,3.60
2018-07-21T04:22:08.105Z,5.75
2018-07-21T04:24:36.520Z,3.65
2018-07-21T04:27:04.937Z,4.40
2018-07-21T04:29:33.444Z,7.83
2018-07-21T04:32:01.828Z,5.20
2018-07-21T04:34:30.300Z,3.60
2018-07-21T04:36:58.712Z,3.08
2018-07-21T04:39:27.192Z,6.10
2018-07-21T04:41:56.101Z,4.85
2018-07-21T04:44:24.516Z,3.10
2018-07-21T04:46:52.986Z,2.83
2018-07-21T04:49:21.509Z,3.27
2018-07-21T04:51:49.964Z,3.20
2018-07-21T04:54:19.157Z,2.95
2018-07-21T04:56:47.644Z,4.90
2018-07-21T04:59:16.153Z,4.55
2018-07-21T05:01:44.662Z,5.50
2018-07-21T05:04:13.061Z,5.05
2018-07-21T05:06:42.221Z,5.45
2018-07-21T05:09:12.333Z,4.60
2018-07-21T05:11:41.221Z,5.33
2018-07-21T05:14:10.471Z,2.92
2018-07-21T05:16:40.116Z,4.47
2018-07-21T05:19:08.588Z,3.08
2018-07-21T05:21:37.496Z,2.52
2018-07-21T05:24:06.163Z,3.25
2018-07-21T05:26:35.269Z,3.98
2018-07-21T05:29:03.760Z,2.30
2018-07-21T05:31:32.225Z,3.87
2018-07-21T05:34:00.936Z,2.42
2018-07-21T05:36:29.505Z,4.12
2018-07-21T05:38:58.803Z,2.30
2018-07-21T05:41:27.312Z,2.40
2018-07-21T05:43:55.788Z,4.25
2018-07-21T05:46:24.203Z,5.33
2018-07-21T05:48:52.651Z,5.12
2018-07-21T05:51:21.097Z,3.98
2018-07-21T05:53:50.220Z,4.30
2018-07-21T05:56:18.660Z,4.53
2018-07-21T05:58:47.203Z,3.60
2018-07-21T06:01:15.732Z,4.83
2018-07-21T06:03:44.264Z,4.12
2018-07-21T06:06:12.675Z,3.45
2018-07-21T06:08:41.881Z,3.92
2018-07-21T06:11:10.348Z,3.55
2018-07-21T06:13:38.904Z,3.10
2018-07-21T06:16:07.353Z,4.83
2018-07-21T06:18:36.322Z,4.60
2018-07-21T06:21:05.432Z,4.12
2018-07-21T06:23:33.877Z,5.08
2018-07-21T06:26:02.288Z,4.15
2018-07-21T06:28:30.736Z,3.67
2018-07-21T06:30:59.631Z,3.98
2018-07-21T06:33:28.049Z,2.67
2018-07-21T06:35:56.561Z,2.37
2018-07-21T06:38:24.965Z,3.25
2018-07-21T06:40:53.392Z,3.72
2018-07-21T06:43:22.496Z,2.37
2018-07-21T06:45:51.039Z,3.67
2018-07-21T06:48:19.764Z,6.90
2018-07-21T06:50:48.310Z,2.55
2018-07-21T06:53:16.858Z,4.45
2018-07-21T06:55:45.836Z,4.33
2018-07-21T06:58:14.334Z,5.97
2018-07-21T07:00:42.740Z,3.55
2018-07-21T07:03:11.181Z,4.10
2018-07-21T07:05:39.604Z,4.75
2018-07-21T07:08:08.030Z,3.55
2018-07-21T07:10:36.448Z,3.08
2018-07-21T07:13:04.905Z,5.90
2018-07-21T07:15:33.564Z,3.42
2018-07-21T07:18:02.170Z,4.10
2018-07-21T07:20:30.317Z,5.92
2018-07-21T07:22:59.115Z,5.92
2018-07-21T07:25:27.908Z,6.22
2018-07-21T07:27:56.520Z,3.37
2018-07-21T07:30:25.184Z,3.75
2018-07-21T07:32:54.189Z,5.75
2018-07-21T07:35:22.757Z,5.05
2018-07-21T07:37:52.133Z,4.37
2018-07-21T07:40:20.673Z,5.62
2018-07-21T07:42:49.132Z,4.67
2018-07-21T07:45:18.478Z,5.22
2018-07-21T07:47:47.012Z,5.10
2018-07-21T07:50:16.009Z,3.60
2018-07-21T07:52:44.568Z,2.90
2018-07-21T07:55:13.151Z,3.17
2018-07-21T07:57:42.545Z,3.95
2018-07-21T08:00:11.588Z,6.05
2018-07-21T08:02:40.171Z,3.47
2018-07-21T08:05:09.541Z,2.85
2018-07-21T08:07:38.028Z,4.22
2018-07-21T08:10:06.641Z,5.40
2018-07-21T08:12:35.273Z,4.58
2018-07-21T08:15:03.858Z,2.70
2018-07-21T08:17:32.268Z,3.45
2018-07-21T08:20:00.879Z,4.65
2018-07-21T08:22:29.260Z,3.12
2018-07-21T08:24:58.328Z,3.92
2018-07-21T08:27:26.788Z,2.83
2018-07-21T08:29:55.276Z,4.53
2018-07-21T08:32:24.196Z,5.15
2018-07-21T08:34:52.627Z,2.92
2018-07-21T08:37:21.098Z,4.53
2018-07-21T08:39:49.605Z,3.72
2018-07-21T08:42:18.039Z,4.70
2018-07-21T08:44:46.598Z,3.92
2018-07-21T08:47:15.084Z,3.83
2018-07-21T08:49:43.570Z,4.20
2018-07-21T08:52:12.041Z,5.03
2018-07-21T08:54:40.472Z,3.85
2018-07-21T08:57:09.444Z,5.78
2018-07-21T08:59:37.844Z,4.28
2018-07-21T09:02:07.289Z,4.87
2018-07-21T09:04:36.371Z,3.95
2018-07-21T09:07:05.421Z,4.10
2018-07-21T09:09:33.873Z,5.55
2018-07-21T09:12:03.711Z,5.65
2018-07-21T09:14:32.160Z,5.00
2018-07-21T09:17:02.572Z,6.40
2018-07-21T09:19:31.728Z,4.17
2018-07-21T09:22:00.245Z,9.15
2018-07-21T09:24:28.742Z,5.33
2018-07-21T09:26:57.303Z,6.35
2018-07-21T09:29:25.704Z,7.33
2018-07-21T09:31:54.276Z,5.47
2018-07-21T09:34:22.705Z,5.40
2018-07-21T09:36:51.096Z,4.08
2018-07-21T09:39:19.637Z,5.62
2018-07-21T09:41:48.063Z,6.12
2018-07-21T09:44:17.197Z,3.52
2018-07-21T09:46:46.612Z,5.62
2018-07-21T09:49:15.101Z,6.65
2018-07-21T09:51:43.629Z,6.25
2018-07-21T09:54:12.070Z,8.20
2018-07-21T09:56:40.609Z,7.70
2018-07-21T09:59:09.048Z,8.33
2018-07-21T10:01:37.557Z,7.90
2018-07-21T10:04:05.967Z,5.60
2018-07-21T10:06:35.358Z,4.60
2018-07-21T10:09:06.097Z,5.55
2018-07-21T10:11:34.818Z,5.10
2018-07-21T10:14:03.252Z,4.90
2018-07-21T10:16:31.668Z,8.83
2018-07-21T10:19:00.161Z,4.83
2018-07-21T10:21:28.636Z,13.98
2018-07-21T10:25:00.317Z,6.08
2018-07-21T10:27:34.140Z,4.97
2018-07-21T10:30:03.166Z,8.98
2018-07-21T10:32:31.718Z,6.30
2018-07-21T10:35:00.189Z,5.40
2018-07-21T10:37:28.682Z,6.03
2018-07-21T10:39:57.094Z,7.37
2018-07-21T10:42:25.557Z,13.38
2018-07-21T10:44:54.145Z,11.15
2018-07-21T10:47:22.850Z,5.92
2018-07-21T10:49:51.408Z,9.80
2018-07-21T10:52:19.856Z,9.48
2018-07-21T10:54:48.282Z,5.47
2018-07-21T10:57:16.715Z,6.42
2018-07-21T10:59:45.198Z,6.70
2018-07-21T11:02:13.721Z,8.05
2018-07-21T11:04:42.226Z,6.65
2018-07-21T11:07:10.717Z,6.20
2018-07-21T11:09:39.209Z,5.33
2018-07-21T11:12:07.807Z,6.60
2018-07-21T11:14:36.232Z,8.83
2018-07-21T11:17:04.713Z,6.17
2018-07-21T11:19:33.352Z,5.33
2018-07-21T11:22:02.493Z,8.80
2018-07-21T11:24:30.905Z,8.08
2018-07-21T11:26:59.400Z,5.55
2018-07-21T11:29:27.813Z,8.23
2018-07-21T11:31:56.329Z,5.85
2018-07-21T11:34:24.848Z,5.92
2018-07-21T11:36:53.318Z,6.35
2018-07-21T11:39:21.745Z,5.87
2018-07-21T11:41:50.184Z,6.72
2018-07-21T11:44:18.713Z,8.35
2018-07-21T11:46:47.225Z,5.60
2018-07-21T11:49:15.698Z,6.58
2018-07-21T11:51:44.128Z,6.83
2018-07-21T11:54:12.637Z,7.30
2018-07-21T11:56:41.154Z,9.03
2018-07-21T11:59:09.675Z,9.48
2018-07-21T12:01:38.117Z,6.12
2018-07-21T12:04:07.113Z,5.40
2018-07-21T12:06:35.610Z,11.65
2018-07-21T12:09:06.092Z,7.92
2018-07-21T12:11:34.530Z,7.92
2018-07-21T12:14:03.037Z,8.08
2018-07-21T12:16:31.455Z,6.78
2018-07-21T12:18:59.906Z,12.35
2018-07-21T12:21:28.376Z,7.72
2018-07-21T12:23:56.846Z,6.60
2018-07-21T12:26:25.484Z,7.05
2018-07-21T12:28:54.058Z,8.78
2018-07-21T12:31:23.248Z,7.47
2018-07-21T12:33:51.731Z,9.18
2018-07-21T12:36:20.288Z,7.08
2018-07-21T12:38:49.333Z,7.72
2018-07-21T12:41:17.844Z,9.78
2018-07-21T12:43:46.559Z,6.20
2018-07-21T12:46:15.616Z,9.53
2018-07-21T12:48:44.672Z,6.35
2018-07-21T12:53:29.399Z,9.15
2018-07-21T12:55:57.922Z,6.22
2018-07-21T12:58:26.789Z,7.72
2018-07-21T13:00:55.836Z,6.25
2018-07-21T13:03:24.554Z,6.15
2018-07-21T13:05:53.070Z,6.58
2018-07-21T13:08:21.524Z,7.17
2018-07-21T13:10:49.963Z,5.72
2018-07-21T13:13:19.396Z,13.30
2018-07-21T13:15:47.885Z,6.80
2018-07-21T13:18:16.330Z,7.28
2018-07-21T13:20:45.345Z,7.03
2018-07-21T13:23:13.868Z,5.87
2018-07-21T13:25:42.528Z,9.48
2018-07-21T13:28:11.048Z,7.10
2018-07-21T13:30:39.838Z,8.35
2018-07-21T13:33:08.407Z,8.10
2018-07-21T13:35:36.845Z,5.90
2018-07-21T13:38:05.332Z,8.98
2018-07-21T13:40:33.841Z,6.95
2018-07-21T13:43:02.427Z,5.87
2018-07-21T13:45:30.863Z,6.87
2018-07-21T13:47:59.464Z,6.05
2018-07-21T13:50:27.992Z,10.20
2018-07-21T13:52:56.608Z,6.08
2018-07-21T13:55:25.169Z,9.68
2018-07-21T13:57:53.672Z,6.80
2018-07-21T14:00:22.272Z,6.33
2018-07-21T14:02:51.032Z,8.63
2018-07-21T14:05:19.542Z,8.38
2018-07-21T14:07:48.905Z,7.33
2018-07-21T14:10:17.462Z,8.48
2018-07-21T14:12:46.030Z,9.90
2018-07-21T14:15:14.525Z,7.10
2018-07-21T14:17:42.957Z,5.78
2018-07-21T14:20:11.389Z,5.87
2018-07-21T14:22:39.966Z,9.83
2018-07-21T14:25:08.571Z,9.35
2018-07-21T14:27:37.014Z,6.95
2018-07-21T14:30:06.857Z,6.87
2018-07-21T14:32:35.310Z,6.47
2018-07-21T14:35:04.009Z,9.55
2018-07-21T14:37:32.423Z,6.45
2018-07-21T14:40:01.025Z,8.03
2018-07-21T14:42:29.492Z,6.58
2018-07-21T14:44:57.952Z,8.18
2018-07-21T14:47:26.399Z,9.50
2018-07-21T14:49:55.516Z,6.85
2018-07-21T14:52:23.891Z,7.33
2018-07-21T14:54:52.396Z,10.28
2018-07-21T14:57:20.751Z,6.62
2018-07-21T14:59:50.021Z,7.42
2018-07-21T15:02:18.534Z,8.15
2018-07-21T15:04:46.960Z,10.58
2018-07-21T15:07:15.408Z,7.25
2018-07-21T15:09:44.432Z,7.72
2018-07-21T15:12:13.481Z,9.40
2018-07-21T15:14:41.970Z,6.03
2018-07-21T15:17:10.418Z,8.43
2018-07-21T15:19:38.940Z,8.93
2018-07-21T15:22:07.461Z,8.10
2018-07-21T15:24:36.844Z,7.30
2018-07-21T15:27:06.493Z,10.50
2018-07-21T15:29:35.128Z,6.65
2018-07-21T15:32:03.558Z,12.05
2018-07-21T15:34:32.096Z,7.37
2018-07-21T15:37:00.488Z,9.15
2018-07-21T15:39:30.255Z,9.95
2018-07-21T15:41:58.760Z,9.08
2018-07-21T15:44:27.194Z,9.00
2018-07-21T15:46:56.415Z,7.70
2018-07-21T15:49:25.016Z,7.17
2018-07-21T15:51:53.440Z,8.10
2018-07-21T15:54:21.914Z,7.50
2018-07-21T15:56:50.456Z,10.10
2018-07-21T15:59:19.184Z,8.58
2018-07-21T16:01:47.664Z,7.40
2018-07-21T16:04:16.857Z,10.25
2018-07-21T16:06:45.535Z,7.67
2018-07-21T16:09:14.095Z,14.63
2018-07-21T16:11:42.532Z,7.78
2018-07-21T16:14:10.961Z,15.03
2018-07-21T16:16:39.461Z,10.63
2018-07-21T16:19:07.884Z,10.90
2018-07-21T16:21:36.393Z,12.88
2018-07-21T16:24:04.984Z,7.65
2018-07-21T16:26:34.151Z,9.95
2018-07-21T16:29:03.012Z,8.43
2018-07-21T16:31:31.417Z,7.30
2018-07-21T16:34:00.771Z,12.37
2018-07-21T16:36:29.865Z,9.50
2018-07-21T16:38:58.493Z,7.83
2018-07-21T16:41:26.919Z,12.68
2018-07-21T16:43:56.220Z,10.45
2018-07-21T16:46:24.786Z,11.38
2018-07-21T16:48:53.218Z,9.70
2018-07-21T16:51:21.759Z,8.43
2018-07-21T16:53:50.374Z,11.00
2018-07-21T16:56:19.475Z,9.90
2018-07-21T16:58:48.049Z,7.40
2018-07-21T17:01:16.613Z,7.67
2018-07-21T17:03:45.058Z,7.37
2018-07-21T17:06:13.544Z,12.28
2018-07-21T17:08:42.056Z,12.03
2018-07-21T17:11:10.616Z,10.00
2018-07-21T17:13:39.148Z,9.10
2018-07-21T17:16:07.628Z,14.60
2018-07-21T17:18:36.516Z,8.15
2018-07-21T17:21:05.216Z,15.53
2018-07-21T17:23:33.804Z,16.55
2018-07-21T17:26:02.664Z,8.98
2018-07-21T17:28:31.747Z,7.17
2018-07-21T17:31:00.356Z,8.53
2018-07-21T17:33:29.305Z,8.63
2018-07-21T17:35:57.781Z,7.97
2018-07-21T17:38:28.362Z,6.50
2018-07-21T17:40:56.962Z,7.50
2018-07-21T17:43:25.088Z,7.37
2018-07-21T17:45:53.620Z,8.63
2018-07-21T17:48:22.261Z,8.25
2018-07-21T17:50:50.781Z,7.55
2018-07-21T17:53:19.864Z,7.40
2018-07-21T17:55:48.884Z,8.03
2018-07-21T17:58:17.330Z,10.18
2018-07-21T18:00:45.776Z,13.62
2018-07-21T18:03:14.415Z,8.08
2018-07-21T18:05:43.516Z,9.18
2018-07-21T18:08:12.068Z,8.50
2018-07-21T18:10:40.674Z,8.93
2018-07-21T18:13:09.853Z,8.50
2018-07-21T18:15:38.356Z,10.20
2018-07-21T18:18:06.761Z,8.93
2018-07-21T18:20:35.205Z,8.88
2018-07-21T18:23:03.692Z,7.20
2018-07-21T18:25:32.744Z,9.13
2018-07-21T18:28:01.491Z,11.45
2018-07-21T18:30:30.044Z,11.50
2018-07-21T18:32:58.466Z,10.63
2018-07-21T18:35:27.348Z,7.67
2018-07-21T18:37:56.594Z,10.75
2018-07-21T18:40:25.312Z,17.67
2018-07-21T18:42:54.882Z,11.93
2018-07-21T18:45:23.472Z,11.60
2018-07-21T18:47:52.892Z,11.57
2018-07-21T18:50:21.524Z,11.55
2018-07-21T18:52:50.073Z,9.13
2018-07-21T18:55:18.773Z,8.60
2018-07-21T18:57:48.211Z,10.78
2018-07-21T19:00:16.684Z,15.43
2018-07-21T19:02:45.673Z,7.72
2018-07-21T19:05:14.148Z,10.72
2018-07-21T19:07:43.428Z,10.28
2018-07-21T19:10:11.906Z,12.13
2018-07-21T19:12:45.942Z,13.32
2018-07-21T19:15:18.885Z,12.85
2018-07-21T19:17:48.096Z,8.95
2018-07-21T19:20:21.809Z,15.53
2018-07-21T19:22:50.933Z,13.58
2018-07-21T19:25:24.612Z,12.30
2018-07-21T19:27:53.305Z,14.20
2018-07-21T19:30:21.851Z,8.93
2018-07-21T19:32:55.596Z,10.70
2018-07-21T19:35:24.047Z,8.23
2018-07-21T19:37:52.609Z,14.05
2018-07-21T19:40:21.156Z,8.98
2018-07-21T19:42:49.656Z,7.60
2018-07-21T19:45:18.109Z,11.40
2018-07-21T19:47:47.512Z,7.55
2018-07-21T19:50:16.804Z,11.73
2018-07-21T19:52:45.293Z,8.88
2018-07-21T19:55:14.417Z,13.93
2018-07-21T19:57:42.869Z,9.40
2018-07-21T20:00:11.533Z,10.55
2018-07-21T20:02:39.947Z,15.13
2018-07-21T20:05:08.517Z,9.93
2018-07-21T20:07:36.982Z,10.32
2018-07-21T20:10:05.945Z,9.43
2018-07-21T20:12:34.588Z,15.55
2018-07-21T20:15:03.142Z,8.30
2018-07-21T20:17:31.588Z,12.68
2018-07-21T20:20:00.088Z,15.05
2018-07-21T20:22:28.535Z,11.70
2018-07-21T20:24:56.954Z,17.70
2018-07-21T20:27:25.688Z,11.53
2018-07-21T20:29:54.314Z,13.75
2018-07-21T20:32:23.064Z,12.75
2018-07-21T20:34:51.615Z,13.20
2018-07-21T20:37:21.004Z,17.70
2018-07-21T20:39:49.491Z,12.73
2018-07-21T20:42:17.945Z,11.70
2018-07-21T20:44:46.486Z,14.00
2018-07-21T20:47:15.025Z,14.13
2018-07-21T20:49:43.764Z,11.25
2018-07-21T20:52:12.330Z,11.57
2018-07-21T20:54:40.907Z,14.38
2018-07-21T20:57:09.501Z,9.70
2018-07-21T20:59:38.081Z,10.80
2018-07-21T21:02:07.051Z,11.93
2018-07-21T21:04:35.686Z,15.10
2018-07-21T21:07:04.242Z,16.27
2018-07-21T21:09:32.681Z,12.00
2018-07-21T21:12:01.141Z,15.63
2018-07-21T21:14:29.737Z,9.65
2018-07-21T21:16:58.152Z,9.63
2018-07-21T21:19:26.758Z,11.68
2018-07-21T21:21:55.256Z,12.45
2018-07-21T21:24:23.717Z,9.28
2018-07-21T21:26:52.221Z,17.10
2018-07-21T21:29:20.697Z,12.73
2018-07-21T21:31:49.104Z,10.72
2018-07-21T21:34:17.532Z,10.70
2018-07-21T21:36:45.959Z,12.07
2018-07-21T21:39:14.411Z,22.82
2018-07-21T21:41:43.097Z,12.65
2018-07-21T21:44:11.592Z,9.53
2018-07-21T21:46:40.072Z,10.10
2018-07-21T21:49:08.832Z,10.35
2018-07-21T21:51:37.924Z,10.58
2018-07-21T21:54:06.416Z,12.55
2018-07-21T21:56:34.885Z,14.83
2018-07-21T21:59:03.398Z,9.45
2018-07-21T22:01:31.845Z,11.20
2018-07-21T22:04:00.282Z,8.25
2018-07-21T22:06:28.836Z,15.08
2018-07-21T22:08:57.277Z,12.55
2018-07-21T22:11:25.747Z,10.75
2018-07-21T22:13:54.192Z,9.60
2018-07-21T22:16:23.796Z,9.80
2018-07-21T22:18:53.270Z,11.00
2018-07-21T22:21:22.427Z,13.05
2018-07-21T22:23:51.358Z,10.90
2018-07-21T22:26:20.591Z,10.03
2018-07-21T22:28:49.164Z,10.48
2018-07-21T22:31:17.589Z,11.53
2018-07-21T22:33:46.941Z,16.05
2018-07-21T22:36:15.225Z,11.55
2018-07-21T22:38:43.726Z,11.08
2018-07-21T22:41:12.862Z,8.88
2018-07-21T22:43:41.651Z,10.98
2018-07-21T22:46:10.234Z,10.82
2018-07-21T22:48:38.741Z,13.48
2018-07-21T22:51:07.039Z,10.80
2018-07-21T22:53:35.622Z,10.35
2018-07-21T22:56:04.205Z,10.98
2018-07-21T22:58:32.641Z,10.75
2018-07-21T23:01:01.085Z,11.10
2018-07-21T23:03:29.604Z,13.85
2018-07-21T23:05:58.318Z,10.98
2018-07-21T23:08:26.771Z,7.87
2018-07-21T23:10:55.298Z,10.35
2018-07-21T23:13:23.921Z,10.50
2018-07-21T23:15:52.424Z,10.13
2018-07-21T23:18:20.940Z,15.95
2018-07-21T23:20:49.020Z,12.78
2018-07-21T23:23:17.701Z,10.43
2018-07-21T23:25:45.996Z,10.28
2018-07-21T23:28:14.411Z,11.03
2018-07-21T23:30:43.401Z,12.70
2018-07-21T23:33:12.012Z,13.00
2018-07-21T23:35:40.500Z,9.58
2018-07-21T23:38:08.960Z,9.73
2018-07-21T23:40:37.352Z,11.68
2018-07-21T23:43:05.913Z,13.43
2018-07-21T23:45:34.324Z,9.05
2018-07-21T23:48:02.901Z,13.83
2018-07-21T23:50:31.537Z,10.15
2018-07-21T23:53:00.819Z,12.78
2018-07-21T23:55:29.104Z,10.28
2018-07-21T23:57:57.548Z,9.63
